Amagansett, New York
Current Conditions -  °F | °C
As of 10:56 PM on Saturday 25 Oct 2014 (Local Time) from KGON Reporting Station
Clear Clear  
Wind Chill: 60°   Ceiling: Unl
Heat Index: 60°   Visibility: 10mi
Dew Point: 51°   Wind: 12mph
Humidity: 72%   Direction: 240°WSW
Pressure: 29.56"   Gusts: NA
Location:  40.97°N, 72.14°W
Report Text: KGON 260256Z AUTO 24010KT 10SM CLR 16/11 A2956 RMK AO2 SLP009 T01560106 58020
Loading
Personal Weather Stations






























Interactive Weather Map New forecast layout! Learn more

10-Day Weather Forecast

Advertisements
Track Severe Weather on mobile